sensor_id;sensor_type;location;lat;lon;timestamp;P1;durP1;ratioP1;P2;durP2;ratioP2
14377;SDS011;7272;53.668;9.578;2022-11-14T00:01:59;20.13;;;18.17;;
14377;SDS011;7272;53.668;9.578;2022-11-14T00:05:20;19.50;;;17.67;;
14377;SDS011;7272;53.668;9.578;2022-11-14T00:08:42;19.80;;;17.87;;
14377;SDS011;7272;53.668;9.578;2022-11-14T00:12:03;20.60;;;18.57;;
14377;SDS011;7272;53.668;9.578;2022-11-14T00:15:23;21.53;;;18.90;;
14377;SDS011;7272;53.668;9.578;2022-11-14T00:18:44;20.80;;;18.70;;
14377;SDS011;7272;53.668;9.578;2022-11-14T00:22:04;20.67;;;18.57;;
14377;SDS011;7272;53.668;9.578;2022-11-14T00:25:26;20.13;;;18.07;;
14377;SDS011;7272;53.668;9.578;2022-11-14T00:28:46;21.10;;;18.87;;
14377;SDS011;7272;53.668;9.578;2022-11-14T00:32:06;22.17;;;20.00;;
14377;SDS011;7272;53.668;9.578;2022-11-14T00:35:27;20.77;;;18.67;;
14377;SDS011;7272;53.668;9.578;2022-11-14T00:38:50;23.63;;;19.37;;
14377;SDS011;7272;53.668;9.578;2022-11-14T00:42:13;27.05;;;24.58;;
14377;SDS011;7272;53.668;9.578;2022-11-14T00:45:33;25.30;;;23.10;;
14377;SDS011;7272;53.668;9.578;2022-11-14T00:48:54;22.33;;;20.13;;
14377;SDS011;7272;53.668;9.578;2022-11-14T00:52:14;22.17;;;20.07;;
14377;SDS011;7272;53.668;9.578;2022-11-14T00:55:34;22.60;;;20.30;;
14377;SDS011;7272;53.668;9.578;2022-11-14T00:58:56;22.60;;;20.20;;
14377;SDS011;7272;53.668;9.578;2022-11-14T01:02:17;23.90;;;20.30;;
14377;SDS011;7272;53.668;9.578;2022-11-14T01:05:40;21.53;;;19.30;;
14377;SDS011;7272;53.668;9.578;2022-11-14T01:09:01;21.93;;;19.60;;
14377;SDS011;7272;53.668;9.578;2022-11-14T01:12:21;21.63;;;19.43;;
14377;SDS011;7272;53.668;9.578;2022-11-14T01:15:44;21.07;;;18.87;;
14377;SDS011;7272;53.668;9.578;2022-11-14T01:19:06;22.67;;;20.33;;
14377;SDS011;7272;53.668;9.578;2022-11-14T01:22:28;22.20;;;19.87;;
14377;SDS011;7272;53.668;9.578;2022-11-14T01:25:48;21.70;;;19.50;;
14377;SDS011;7272;53.668;9.578;2022-11-14T01:29:08;21.47;;;19.30;;
14377;SDS011;7272;53.668;9.578;2022-11-14T01:32:30;22.77;;;20.47;;
14377;SDS011;7272;53.668;9.578;2022-11-14T01:35:51;28.20;;;25.70;;
14377;SDS011;7272;53.668;9.578;2022-11-14T01:39:11;27.55;;;24.95;;
14377;SDS011;7272;53.668;9.578;2022-11-14T01:42:31;22.37;;;20.17;;
14377;SDS011;7272;53.668;9.578;2022-11-14T01:45:53;22.10;;;19.77;;
14377;SDS011;7272;53.668;9.578;2022-11-14T01:49:18;21.73;;;19.57;;
14377;SDS011;7272;53.668;9.578;2022-11-14T01:52:41;22.10;;;19.80;;
14377;SDS011;7272;53.668;9.578;2022-11-14T01:56:02;21.40;;;19.23;;
14377;SDS011;7272;53.668;9.578;2022-11-14T01:59:26;25.80;;;21.13;;
14377;SDS011;7272;53.668;9.578;2022-11-14T02:02:49;25.93;;;20.77;;
14377;SDS011;7272;53.668;9.578;2022-11-14T02:06:11;25.20;;;22.17;;
14377;SDS011;7272;53.668;9.578;2022-11-14T02:09:34;25.63;;;21.63;;
14377;SDS011;7272;53.668;9.578;2022-11-14T02:12:56;23.43;;;20.97;;
14377;SDS011;7272;53.668;9.578;2022-11-14T02:16:17;25.33;;;22.53;;
14377;SDS011;7272;53.668;9.578;2022-11-14T02:19:41;22.60;;;20.20;;
14377;SDS011;7272;53.668;9.578;2022-11-14T02:23:04;23.13;;;20.63;;
14377;SDS011;7272;53.668;9.578;2022-11-14T02:26:24;23.47;;;20.97;;
14377;SDS011;7272;53.668;9.578;2022-11-14T02:29:45;25.67;;;22.98;;
14377;SDS011;7272;53.668;9.578;2022-11-14T02:33:06;25.90;;;23.10;;
14377;SDS011;7272;53.668;9.578;2022-11-14T02:36:26;24.40;;;21.80;;
14377;SDS011;7272;53.668;9.578;2022-11-14T02:39:48;24.57;;;21.90;;
14377;SDS011;7272;53.668;9.578;2022-11-14T02:43:08;26.17;;;22.80;;
14377;SDS011;7272;53.668;9.578;2022-11-14T02:46:28;24.27;;;21.67;;
14377;SDS011;7272;53.668;9.578;2022-11-14T02:49:49;24.87;;;21.90;;
14377;SDS011;7272;53.668;9.578;2022-11-14T02:53:10;25.87;;;23.07;;
14377;SDS011;7272;53.668;9.578;2022-11-14T02:56:31;28.13;;;24.17;;
14377;SDS011;7272;53.668;9.578;2022-11-14T02:59:52;29.20;;;25.53;;
14377;SDS011;7272;53.668;9.578;2022-11-14T03:03:12;27.60;;;23.13;;
14377;SDS011;7272;53.668;9.578;2022-11-14T03:06:32;28.33;;;24.03;;
14377;SDS011;7272;53.668;9.578;2022-11-14T03:09:53;27.70;;;24.23;;
14377;SDS011;7272;53.668;9.578;2022-11-14T03:13:15;30.30;;;25.30;;
14377;SDS011;7272;53.668;9.578;2022-11-14T03:16:35;26.57;;;22.93;;
14377;SDS011;7272;53.668;9.578;2022-11-14T03:19:55;29.40;;;24.80;;
14377;SDS011;7272;53.668;9.578;2022-11-14T03:23:16;29.23;;;25.57;;
14377;SDS011;7272;53.668;9.578;2022-11-14T03:26:36;26.20;;;23.40;;
14377;SDS011;7272;53.668;9.578;2022-11-14T03:29:58;26.10;;;22.57;;
14377;SDS011;7272;53.668;9.578;2022-11-14T03:33:18;27.03;;;22.97;;
14377;SDS011;7272;53.668;9.578;2022-11-14T03:36:38;25.07;;;21.57;;
14377;SDS011;7272;53.668;9.578;2022-11-14T03:39:59;25.93;;;23.23;;
14377;SDS011;7272;53.668;9.578;2022-11-14T03:43:19;30.00;;;24.93;;
14377;SDS011;7272;53.668;9.578;2022-11-14T03:46:41;29.27;;;24.77;;
14377;SDS011;7272;53.668;9.578;2022-11-14T03:50:02;27.37;;;23.23;;
14377;SDS011;7272;53.668;9.578;2022-11-14T03:53:23;29.60;;;23.10;;
14377;SDS011;7272;53.668;9.578;2022-11-14T03:56:46;30.20;;;25.80;;
14377;SDS011;7272;53.668;9.578;2022-11-14T04:00:07;27.73;;;23.93;;
14377;SDS011;7272;53.668;9.578;2022-11-14T04:03:30;26.10;;;22.57;;
14377;SDS011;7272;53.668;9.578;2022-11-14T04:06:50;29.27;;;24.40;;
14377;SDS011;7272;53.668;9.578;2022-11-14T04:10:11;24.87;;;22.07;;
14377;SDS011;7272;53.668;9.578;2022-11-14T04:13:31;27.77;;;22.97;;
14377;SDS011;7272;53.668;9.578;2022-11-14T04:16:51;29.90;;;25.40;;
14377;SDS011;7272;53.668;9.578;2022-11-14T04:20:13;27.60;;;23.20;;
14377;SDS011;7272;53.668;9.578;2022-11-14T04:23:34;26.80;;;23.47;;
14377;SDS011;7272;53.668;9.578;2022-11-14T04:26:55;26.97;;;22.70;;
14377;SDS011;7272;53.668;9.578;2022-11-14T04:30:16;32.40;;;29.07;;
14377;SDS011;7272;53.668;9.578;2022-11-14T04:33:36;26.63;;;23.13;;
14377;SDS011;7272;53.668;9.578;2022-11-14T04:36:58;26.43;;;23.57;;
14377;SDS011;7272;53.668;9.578;2022-11-14T04:40:18;26.17;;;22.27;;
14377;SDS011;7272;53.668;9.578;2022-11-14T04:43:38;26.93;;;22.50;;
14377;SDS011;7272;53.668;9.578;2022-11-14T04:46:59;31.87;;;26.30;;
14377;SDS011;7272;53.668;9.578;2022-11-14T04:50:19;29.30;;;24.50;;
14377;SDS011;7272;53.668;9.578;2022-11-14T04:53:41;29.27;;;25.33;;
14377;SDS011;7272;53.668;9.578;2022-11-14T04:57:02;30.37;;;24.60;;
14377;SDS011;7272;53.668;9.578;2022-11-14T05:00:22;27.53;;;23.03;;
14377;SDS011;7272;53.668;9.578;2022-11-14T05:03:43;27.30;;;22.50;;
14377;SDS011;7272;53.668;9.578;2022-11-14T05:07:04;26.83;;;23.30;;
14377;SDS011;7272;53.668;9.578;2022-11-14T05:10:26;27.37;;;23.83;;
14377;SDS011;7272;53.668;9.578;2022-11-14T05:13:47;25.83;;;23.03;;
14377;SDS011;7272;53.668;9.578;2022-11-14T05:17:07;28.40;;;24.90;;
14377;SDS011;7272;53.668;9.578;2022-11-14T05:20:28;26.83;;;22.70;;
14377;SDS011;7272;53.668;9.578;2022-11-14T05:23:48;26.57;;;22.50;;
14377;SDS011;7272;53.668;9.578;2022-11-14T05:27:09;26.20;;;23.40;;
14377;SDS011;7272;53.668;9.578;2022-11-14T05:30:30;33.30;;;29.70;;
14377;SDS011;7272;53.668;9.578;2022-11-14T05:33:51;29.70;;;26.20;;
14377;SDS011;7272;53.668;9.578;2022-11-14T05:37:11;26.33;;;23.23;;
14377;SDS011;7272;53.668;9.578;2022-11-14T05:40:32;27.13;;;24.20;;
14377;SDS011;7272;53.668;9.578;2022-11-14T05:43:53;28.47;;;24.80;;
14377;SDS011;7272;53.668;9.578;2022-11-14T05:47:14;27.17;;;22.47;;
14377;SDS011;7272;53.668;9.578;2022-11-14T05:50:35;27.13;;;23.30;;
14377;SDS011;7272;53.668;9.578;2022-11-14T05:53:55;27.00;;;23.07;;
14377;SDS011;7272;53.668;9.578;2022-11-14T05:57:15;26.83;;;22.73;;
14377;SDS011;7272;53.668;9.578;2022-11-14T06:00:37;29.47;;;25.10;;
14377;SDS011;7272;53.668;9.578;2022-11-14T06:03:57;26.13;;;22.23;;
14377;SDS011;7272;53.668;9.578;2022-11-14T06:07:18;29.00;;;24.07;;
14377;SDS011;7272;53.668;9.578;2022-11-14T06:10:38;26.40;;;22.77;;
14377;SDS011;7272;53.668;9.578;2022-11-14T06:13:59;24.23;;;21.63;;
14377;SDS011;7272;53.668;9.578;2022-11-14T06:17:20;30.40;;;25.47;;
14377;SDS011;7272;53.668;9.578;2022-11-14T06:20:41;27.33;;;24.03;;
14377;SDS011;7272;53.668;9.578;2022-11-14T06:24:01;28.43;;;25.27;;
14377;SDS011;7272;53.668;9.578;2022-11-14T06:27:22;28.67;;;24.27;;
14377;SDS011;7272;53.668;9.578;2022-11-14T06:30:42;34.10;;;30.80;;
14377;SDS011;7272;53.668;9.578;2022-11-14T06:34:04;31.85;;;28.75;;
14377;SDS011;7272;53.668;9.578;2022-11-14T06:37:25;27.43;;;24.10;;
14377;SDS011;7272;53.668;9.578;2022-11-14T06:40:46;28.27;;;23.20;;
14377;SDS011;7272;53.668;9.578;2022-11-14T06:44:06;31.20;;;26.00;;
14377;SDS011;7272;53.668;9.578;2022-11-14T06:47:27;28.53;;;23.83;;
14377;SDS011;7272;53.668;9.578;2022-11-14T06:50:51;31.90;;;26.67;;
14377;SDS011;7272;53.668;9.578;2022-11-14T06:54:12;28.73;;;25.17;;
14377;SDS011;7272;53.668;9.578;2022-11-14T06:57:32;27.63;;;24.63;;
14377;SDS011;7272;53.668;9.578;2022-11-14T07:00:53;28.70;;;25.13;;
14377;SDS011;7272;53.668;9.578;2022-11-14T07:04:14;30.37;;;24.83;;
14377;SDS011;7272;53.668;9.578;2022-11-14T07:07:36;30.67;;;25.70;;
14377;SDS011;7272;53.668;9.578;2022-11-14T07:10:59;30.30;;;25.10;;
14377;SDS011;7272;53.668;9.578;2022-11-14T07:14:21;30.60;;;25.00;;
14377;SDS011;7272;53.668;9.578;2022-11-14T07:17:42;31.30;;;25.57;;
14377;SDS011;7272;53.668;9.578;2022-11-14T07:21:03;29.20;;;24.80;;
14377;SDS011;7272;53.668;9.578;2022-11-14T07:24:26;27.60;;;23.93;;
14377;SDS011;7272;53.668;9.578;2022-11-14T07:27:46;29.90;;;26.30;;
14377;SDS011;7272;53.668;9.578;2022-11-14T07:31:08;29.63;;;25.10;;
14377;SDS011;7272;53.668;9.578;2022-11-14T07:34:30;32.88;;;29.38;;
14377;SDS011;7272;53.668;9.578;2022-11-14T07:37:51;30.97;;;25.87;;
14377;SDS011;7272;53.668;9.578;2022-11-14T07:41:14;27.83;;;24.50;;
14377;SDS011;7272;53.668;9.578;2022-11-14T07:44:35;27.73;;;23.53;;
14377;SDS011;7272;53.668;9.578;2022-11-14T07:47:56;27.30;;;23.63;;
14377;SDS011;7272;53.668;9.578;2022-11-14T07:51:18;29.30;;;25.57;;
14377;SDS011;7272;53.668;9.578;2022-11-14T07:54:39;30.10;;;25.20;;
14377;SDS011;7272;53.668;9.578;2022-11-14T07:58:01;28.13;;;24.30;;
14377;SDS011;7272;53.668;9.578;2022-11-14T08:01:22;26.27;;;23.30;;
14377;SDS011;7272;53.668;9.578;2022-11-14T08:04:42;30.50;;;25.07;;
14377;SDS011;7272;53.668;9.578;2022-11-14T08:08:03;29.40;;;25.87;;
14377;SDS011;7272;53.668;9.578;2022-11-14T08:11:24;26.73;;;23.67;;
14377;SDS011;7272;53.668;9.578;2022-11-14T08:15:00;29.57;;;25.23;;
14377;SDS011;7272;53.668;9.578;2022-11-14T08:18:21;28.23;;;23.67;;
14377;SDS011;7272;53.668;9.578;2022-11-14T08:21:42;29.10;;;23.57;;
14377;SDS011;7272;53.668;9.578;2022-11-14T08:25:03;27.90;;;23.63;;
14377;SDS011;7272;53.668;9.578;2022-11-14T08:28:24;27.07;;;22.70;;
14377;SDS011;7272;53.668;9.578;2022-11-14T08:31:45;28.43;;;22.77;;
14377;SDS011;7272;53.668;9.578;2022-11-14T08:35:06;29.23;;;24.37;;
14377;SDS011;7272;53.668;9.578;2022-11-14T08:38:27;27.80;;;24.80;;
14377;SDS011;7272;53.668;9.578;2022-11-14T08:41:47;34.03;;;30.42;;
14377;SDS011;7272;53.668;9.578;2022-11-14T08:45:08;34.25;;;30.52;;
14377;SDS011;7272;53.668;9.578;2022-11-14T08:48:30;33.83;;;28.17;;
14377;SDS011;7272;53.668;9.578;2022-11-14T08:51:51;30.77;;;25.80;;
14377;SDS011;7272;53.668;9.578;2022-11-14T08:55:12;31.20;;;26.40;;
14377;SDS011;7272;53.668;9.578;2022-11-14T08:58:32;32.27;;;25.13;;
14377;SDS011;7272;53.668;9.578;2022-11-14T09:01:52;30.37;;;24.73;;
14377;SDS011;7272;53.668;9.578;2022-11-14T09:05:14;26.23;;;22.50;;
14377;SDS011;7272;53.668;9.578;2022-11-14T09:08:35;28.03;;;24.07;;
14377;SDS011;7272;53.668;9.578;2022-11-14T09:11:55;31.53;;;24.03;;
14377;SDS011;7272;53.668;9.578;2022-11-14T09:15:15;30.20;;;24.37;;
14377;SDS011;7272;53.668;9.578;2022-11-14T09:18:36;30.50;;;24.60;;
14377;SDS011;7272;53.668;9.578;2022-11-14T09:21:57;27.70;;;23.60;;
14377;SDS011;7272;53.668;9.578;2022-11-14T09:25:18;28.17;;;23.53;;
14377;SDS011;7272;53.668;9.578;2022-11-14T09:28:39;31.30;;;26.10;;
14377;SDS011;7272;53.668;9.578;2022-11-14T09:32:00;30.43;;;25.43;;
14377;SDS011;7272;53.668;9.578;2022-11-14T09:35:20;33.33;;;27.43;;
14377;SDS011;7272;53.668;9.578;2022-11-14T09:38:42;33.20;;;27.43;;
14377;SDS011;7272;53.668;9.578;2022-11-14T09:42:07;30.13;;;24.83;;
14377;SDS011;7272;53.668;9.578;2022-11-14T09:45:39;30.17;;;24.40;;
14377;SDS011;7272;53.668;9.578;2022-11-14T09:49:08;29.30;;;24.07;;
14377;SDS011;7272;53.668;9.578;2022-11-14T09:52:39;33.75;;;30.25;;
14377;SDS011;7272;53.668;9.578;2022-11-14T09:56:07;31.57;;;25.43;;
14377;SDS011;7272;53.668;9.578;2022-11-14T09:59:29;29.47;;;24.87;;
14377;SDS011;7272;53.668;9.578;2022-11-14T10:02:54;32.17;;;26.37;;
14377;SDS011;7272;53.668;9.578;2022-11-14T10:06:23;28.83;;;23.30;;
14377;SDS011;7272;53.668;9.578;2022-11-14T10:09:53;27.33;;;24.10;;
14377;SDS011;7272;53.668;9.578;2022-11-14T10:13:27;26.87;;;23.47;;
14377;SDS011;7272;53.668;9.578;2022-11-14T10:17:00;28.43;;;23.00;;
14377;SDS011;7272;53.668;9.578;2022-11-14T10:20:31;29.20;;;23.30;;
14377;SDS011;7272;53.668;9.578;2022-11-14T10:23:56;29.43;;;23.67;;
14377;SDS011;7272;53.668;9.578;2022-11-14T10:27:24;28.20;;;22.90;;
14377;SDS011;7272;53.668;9.578;2022-11-14T10:30:50;29.20;;;24.07;;
14377;SDS011;7272;53.668;9.578;2022-11-14T10:34:21;33.70;;;25.27;;
14377;SDS011;7272;53.668;9.578;2022-11-14T10:37:49;28.10;;;23.40;;
14377;SDS011;7272;53.668;9.578;2022-11-14T10:41:16;29.50;;;23.73;;
14377;SDS011;7272;53.668;9.578;2022-11-14T10:44:38;27.83;;;23.20;;
14377;SDS011;7272;53.668;9.578;2022-11-14T10:48:11;29.63;;;24.47;;
14377;SDS011;7272;53.668;9.578;2022-11-14T10:51:36;33.45;;;29.95;;
14377;SDS011;7272;53.668;9.578;2022-11-14T10:55:02;30.20;;;26.03;;
14377;SDS011;7272;53.668;9.578;2022-11-14T10:58:26;28.13;;;23.63;;
14377;SDS011;7272;53.668;9.578;2022-11-14T11:01:52;30.00;;;25.27;;
14377;SDS011;7272;53.668;9.578;2022-11-14T11:05:15;29.63;;;23.83;;
14377;SDS011;7272;53.668;9.578;2022-11-14T11:08:40;26.60;;;22.30;;
14377;SDS011;7272;53.668;9.578;2022-11-14T11:12:19;26.73;;;22.10;;
14377;SDS011;7272;53.668;9.578;2022-11-14T11:15:41;26.23;;;22.27;;
14377;SDS011;7272;53.668;9.578;2022-11-14T11:22:45;28.47;;;22.97;;
14377;SDS011;7272;53.668;9.578;2022-11-14T11:26:06;27.43;;;23.20;;
14377;SDS011;7272;53.668;9.578;2022-11-14T11:29:34;28.03;;;24.07;;
14377;SDS011;7272;53.668;9.578;2022-11-14T11:32:55;27.40;;;23.17;;
14377;SDS011;7272;53.668;9.578;2022-11-14T11:36:16;24.07;;;20.53;;
14377;SDS011;7272;53.668;9.578;2022-11-14T11:39:40;27.20;;;23.03;;
14377;SDS011;7272;53.668;9.578;2022-11-14T11:43:08;25.63;;;22.30;;
14377;SDS011;7272;53.668;9.578;2022-11-14T11:46:34;27.87;;;23.07;;
14377;SDS011;7272;53.668;9.578;2022-11-14T11:50:10;29.23;;;23.87;;
14377;SDS011;7272;53.668;9.578;2022-11-14T11:53:35;30.73;;;27.63;;
14377;SDS011;7272;53.668;9.578;2022-11-14T11:57:02;25.97;;;23.20;;
14377;SDS011;7272;53.668;9.578;2022-11-14T12:00:31;27.23;;;24.30;;
14377;SDS011;7272;53.668;9.578;2022-11-14T12:03:52;26.87;;;23.00;;
14377;SDS011;7272;53.668;9.578;2022-11-14T12:07:14;23.30;;;20.83;;
14377;SDS011;7272;53.668;9.578;2022-11-14T12:10:38;26.53;;;23.73;;
14377;SDS011;7272;53.668;9.578;2022-11-14T12:14:11;26.20;;;23.43;;
14377;SDS011;7272;53.668;9.578;2022-11-14T12:18:05;23.23;;;20.93;;
14377;SDS011;7272;53.668;9.578;2022-11-14T12:21:48;24.37;;;21.73;;
14377;SDS011;7272;53.668;9.578;2022-11-14T12:29:13;23.37;;;20.60;;
14377;SDS011;7272;53.668;9.578;2022-11-14T12:32:50;23.83;;;21.30;;
14377;SDS011;7272;53.668;9.578;2022-11-14T12:36:15;24.43;;;21.77;;
14377;SDS011;7272;53.668;9.578;2022-11-14T12:39:35;24.03;;;21.07;;
14377;SDS011;7272;53.668;9.578;2022-11-14T12:42:56;25.47;;;21.77;;
14377;SDS011;7272;53.668;9.578;2022-11-14T12:46:19;22.83;;;20.43;;
14377;SDS011;7272;53.668;9.578;2022-11-14T12:57:01;27.90;;;25.30;;
14377;SDS011;7272;53.668;9.578;2022-11-14T13:00:29;24.63;;;21.00;;
14377;SDS011;7272;53.668;9.578;2022-11-14T13:03:55;22.80;;;20.40;;
14377;SDS011;7272;53.668;9.578;2022-11-14T13:07:28;21.47;;;19.27;;
14377;SDS011;7272;53.668;9.578;2022-11-14T13:10:58;22.17;;;19.87;;
14377;SDS011;7272;53.668;9.578;2022-11-14T13:14:19;22.57;;;20.03;;
14377;SDS011;7272;53.668;9.578;2022-11-14T13:18:02;21.77;;;19.50;;
14377;SDS011;7272;53.668;9.578;2022-11-14T13:29:49;23.07;;;20.60;;
14377;SDS011;7272;53.668;9.578;2022-11-14T13:33:09;23.17;;;20.67;;
14377;SDS011;7272;53.668;9.578;2022-11-14T13:37:01;21.80;;;19.47;;
14377;SDS011;7272;53.668;9.578;2022-11-14T13:40:32;21.47;;;19.17;;
14377;SDS011;7272;53.668;9.578;2022-11-14T13:43:59;22.37;;;19.97;;
14377;SDS011;7272;53.668;9.578;2022-11-14T13:47:45;23.27;;;20.77;;
14377;SDS011;7272;53.668;9.578;2022-11-14T13:51:28;22.97;;;20.07;;
14377;SDS011;7272;53.668;9.578;2022-11-14T13:54:50;23.07;;;20.67;;
14377;SDS011;7272;53.668;9.578;2022-11-14T13:58:16;22.00;;;18.97;;
14377;SDS011;7272;53.668;9.578;2022-11-14T14:01:57;22.60;;;20.33;;
14377;SDS011;7272;53.668;9.578;2022-11-14T14:05:39;21.47;;;19.17;;
14377;SDS011;7272;53.668;9.578;2022-11-14T14:09:19;22.70;;;19.47;;
14377;SDS011;7272;53.668;9.578;2022-11-14T14:12:49;21.43;;;19.23;;
14377;SDS011;7272;53.668;9.578;2022-11-14T14:16:24;25.00;;;21.47;;
14377;SDS011;7272;53.668;9.578;2022-11-14T14:19:55;22.90;;;20.37;;
14377;SDS011;7272;53.668;9.578;2022-11-14T14:23:29;23.57;;;20.97;;
14377;SDS011;7272;53.668;9.578;2022-11-14T14:27:00;21.03;;;18.80;;
14377;SDS011;7272;53.668;9.578;2022-11-14T14:30:27;23.27;;;20.53;;
14377;SDS011;7272;53.668;9.578;2022-11-14T14:33:50;22.93;;;20.20;;
14377;SDS011;7272;53.668;9.578;2022-11-14T14:37:18;26.85;;;24.15;;
14377;SDS011;7272;53.668;9.578;2022-11-14T14:40:40;22.57;;;20.07;;
14377;SDS011;7272;53.668;9.578;2022-11-14T14:44:01;22.37;;;19.30;;
14377;SDS011;7272;53.668;9.578;2022-11-14T14:47:32;23.43;;;20.87;;
14377;SDS011;7272;53.668;9.578;2022-11-14T14:50:58;25.20;;;21.10;;
14377;SDS011;7272;53.668;9.578;2022-11-14T14:54:21;22.87;;;20.33;;
14377;SDS011;7272;53.668;9.578;2022-11-14T14:57:43;24.00;;;21.40;;
14377;SDS011;7272;53.668;9.578;2022-11-14T15:01:05;22.30;;;19.93;;
14377;SDS011;7272;53.668;9.578;2022-11-14T15:04:29;22.67;;;20.27;;
14377;SDS011;7272;53.668;9.578;2022-11-14T15:07:52;24.00;;;20.27;;
14377;SDS011;7272;53.668;9.578;2022-11-14T15:11:15;26.03;;;21.00;;
14377;SDS011;7272;53.668;9.578;2022-11-14T15:14:36;21.83;;;19.47;;
14377;SDS011;7272;53.668;9.578;2022-11-14T15:17:57;22.70;;;18.87;;
14377;SDS011;7272;53.668;9.578;2022-11-14T15:21:23;23.77;;;20.20;;
14377;SDS011;7272;53.668;9.578;2022-11-14T15:28:35;21.23;;;17.87;;
14377;SDS011;7272;53.668;9.578;2022-11-14T15:31:56;28.40;;;25.50;;
14377;SDS011;7272;53.668;9.578;2022-11-14T15:35:26;27.25;;;24.45;;
14377;SDS011;7272;53.668;9.578;2022-11-14T15:38:58;22.63;;;20.10;;
14377;SDS011;7272;53.668;9.578;2022-11-14T15:42:27;21.20;;;18.77;;
14377;SDS011;7272;53.668;9.578;2022-11-14T15:45:47;22.83;;;20.33;;
14377;SDS011;7272;53.668;9.578;2022-11-14T15:49:09;20.80;;;18.70;;
14377;SDS011;7272;53.668;9.578;2022-11-14T15:52:38;22.90;;;19.33;;
14377;SDS011;7272;53.668;9.578;2022-11-14T15:56:06;23.60;;;20.27;;
14377;SDS011;7272;53.668;9.578;2022-11-14T15:59:30;21.13;;;18.17;;
14377;SDS011;7272;53.668;9.578;2022-11-14T16:02:53;22.57;;;18.63;;
14377;SDS011;7272;53.668;9.578;2022-11-14T16:06:15;22.20;;;19.10;;
14377;SDS011;7272;53.668;9.578;2022-11-14T16:09:36;25.60;;;21.27;;
14377;SDS011;7272;53.668;9.578;2022-11-14T16:12:56;21.37;;;18.53;;
14377;SDS011;7272;53.668;9.578;2022-11-14T16:16:18;24.43;;;20.43;;
14377;SDS011;7272;53.668;9.578;2022-11-14T16:19:39;21.27;;;18.57;;
14377;SDS011;7272;53.668;9.578;2022-11-14T16:23:00;27.63;;;20.80;;
14377;SDS011;7272;53.668;9.578;2022-11-14T16:26:21;24.10;;;19.17;;
14377;SDS011;7272;53.668;9.578;2022-11-14T16:29:43;22.87;;;19.10;;
14377;SDS011;7272;53.668;9.578;2022-11-14T16:33:06;29.42;;;26.52;;
14377;SDS011;7272;53.668;9.578;2022-11-14T16:36:27;22.00;;;19.00;;
14377;SDS011;7272;53.668;9.578;2022-11-14T16:39:49;20.10;;;17.83;;
14377;SDS011;7272;53.668;9.578;2022-11-14T16:43:10;21.83;;;19.30;;
14377;SDS011;7272;53.668;9.578;2022-11-14T16:46:32;20.00;;;17.93;;
14377;SDS011;7272;53.668;9.578;2022-11-14T16:49:54;22.17;;;19.23;;
14377;SDS011;7272;53.668;9.578;2022-11-14T16:53:14;22.00;;;18.27;;
14377;SDS011;7272;53.668;9.578;2022-11-14T16:56:35;23.60;;;20.70;;
14377;SDS011;7272;53.668;9.578;2022-11-14T16:59:55;21.43;;;17.97;;
14377;SDS011;7272;53.668;9.578;2022-11-14T17:03:16;20.80;;;18.50;;
14377;SDS011;7272;53.668;9.578;2022-11-14T17:06:38;22.07;;;18.07;;
14377;SDS011;7272;53.668;9.578;2022-11-14T17:09:58;21.23;;;18.80;;
14377;SDS011;7272;53.668;9.578;2022-11-14T17:13:19;23.43;;;18.70;;
14377;SDS011;7272;53.668;9.578;2022-11-14T17:16:43;21.47;;;18.10;;
14377;SDS011;7272;53.668;9.578;2022-11-14T17:20:05;20.13;;;17.90;;
14377;SDS011;7272;53.668;9.578;2022-11-14T17:23:27;25.27;;;20.87;;
14377;SDS011;7272;53.668;9.578;2022-11-14T17:26:48;24.08;;;20.05;;
14377;SDS011;7272;53.668;9.578;2022-11-14T17:30:10;22.77;;;20.30;;
14377;SDS011;7272;53.668;9.578;2022-11-14T17:33:31;28.35;;;25.65;;
14377;SDS011;7272;53.668;9.578;2022-11-14T17:36:51;22.97;;;20.00;;
14377;SDS011;7272;53.668;9.578;2022-11-14T17:40:13;21.10;;;18.77;;
14377;SDS011;7272;53.668;9.578;2022-11-14T17:43:35;21.50;;;18.77;;
14377;SDS011;7272;53.668;9.578;2022-11-14T17:46:55;20.87;;;18.67;;
14377;SDS011;7272;53.668;9.578;2022-11-14T17:50:16;21.63;;;19.30;;
14377;SDS011;7272;53.668;9.578;2022-11-14T17:53:37;20.50;;;18.07;;
14377;SDS011;7272;53.668;9.578;2022-11-14T17:56:59;21.30;;;18.60;;
14377;SDS011;7272;53.668;9.578;2022-11-14T18:00:20;22.07;;;18.37;;
14377;SDS011;7272;53.668;9.578;2022-11-14T18:03:41;22.27;;;17.90;;
14377;SDS011;7272;53.668;9.578;2022-11-14T18:07:01;21.30;;;18.37;;
14377;SDS011;7272;53.668;9.578;2022-11-14T18:10:22;21.60;;;19.27;;
14377;SDS011;7272;53.668;9.578;2022-11-14T18:13:44;21.47;;;18.87;;
14377;SDS011;7272;53.668;9.578;2022-11-14T18:17:04;21.20;;;18.50;;
14377;SDS011;7272;53.668;9.578;2022-11-14T18:20:25;21.03;;;18.83;;
14377;SDS011;7272;53.668;9.578;2022-11-14T18:23:48;22.43;;;20.13;;
14377;SDS011;7272;53.668;9.578;2022-11-14T18:27:09;23.10;;;20.03;;
14377;SDS011;7272;53.668;9.578;2022-11-14T18:30:31;21.43;;;18.67;;
14377;SDS011;7272;53.668;9.578;2022-11-14T18:33:52;20.48;;;18.30;;
14377;SDS011;7272;53.668;9.578;2022-11-14T18:37:13;19.20;;;17.13;;
14377;SDS011;7272;53.668;9.578;2022-11-14T18:40:34;26.02;;;23.63;;
14377;SDS011;7272;53.668;9.578;2022-11-14T18:43:55;19.67;;;17.67;;
14377;SDS011;7272;53.668;9.578;2022-11-14T18:47:17;20.40;;;18.30;;
14377;SDS011;7272;53.668;9.578;2022-11-14T18:50:38;18.33;;;16.50;;
14377;SDS011;7272;53.668;9.578;2022-11-14T18:53:59;17.23;;;15.50;;
14377;SDS011;7272;53.668;9.578;2022-11-14T18:57:19;19.47;;;17.37;;
14377;SDS011;7272;53.668;9.578;2022-11-14T19:00:40;20.23;;;18.23;;
14377;SDS011;7272;53.668;9.578;2022-11-14T19:04:03;18.70;;;16.83;;
14377;SDS011;7272;53.668;9.578;2022-11-14T19:07:25;19.20;;;17.20;;
14377;SDS011;7272;53.668;9.578;2022-11-14T19:10:47;18.70;;;16.77;;
14377;SDS011;7272;53.668;9.578;2022-11-14T19:14:08;21.40;;;19.10;;
14377;SDS011;7272;53.668;9.578;2022-11-14T19:17:29;17.80;;;15.97;;
14377;SDS011;7272;53.668;9.578;2022-11-14T19:20:56;19.90;;;17.97;;
14377;SDS011;7272;53.668;9.578;2022-11-14T19:24:17;18.63;;;16.63;;
14377;SDS011;7272;53.668;9.578;2022-11-14T19:27:37;18.27;;;16.33;;
14377;SDS011;7272;53.668;9.578;2022-11-14T19:30:59;22.27;;;19.97;;
14377;SDS011;7272;53.668;9.578;2022-11-14T19:34:20;18.00;;;16.10;;
14377;SDS011;7272;53.668;9.578;2022-11-14T19:37:42;18.27;;;16.33;;
14377;SDS011;7272;53.668;9.578;2022-11-14T19:41:04;18.60;;;16.77;;
14377;SDS011;7272;53.668;9.578;2022-11-14T19:44:25;20.63;;;17.73;;
14377;SDS011;7272;53.668;9.578;2022-11-14T19:47:46;21.17;;;18.30;;
14377;SDS011;7272;53.668;9.578;2022-11-14T19:51:08;26.90;;;24.30;;
14377;SDS011;7272;53.668;9.578;2022-11-14T19:54:31;26.67;;;24.08;;
14377;SDS011;7272;53.668;9.578;2022-11-14T19:57:52;22.07;;;19.30;;
14377;SDS011;7272;53.668;9.578;2022-11-14T20:01:14;21.37;;;18.47;;
14377;SDS011;7272;53.668;9.578;2022-11-14T20:04:36;21.83;;;19.53;;
14377;SDS011;7272;53.668;9.578;2022-11-14T20:07:57;21.17;;;18.90;;
14377;SDS011;7272;53.668;9.578;2022-11-14T20:11:19;24.10;;;18.07;;
14377;SDS011;7272;53.668;9.578;2022-11-14T20:14:41;22.97;;;20.53;;
14377;SDS011;7272;53.668;9.578;2022-11-14T20:18:02;22.23;;;18.67;;
14377;SDS011;7272;53.668;9.578;2022-11-14T20:21:23;20.90;;;18.80;;
14377;SDS011;7272;53.668;9.578;2022-11-14T20:24:44;21.17;;;18.97;;
14377;SDS011;7272;53.668;9.578;2022-11-14T20:28:07;19.50;;;17.47;;
14377;SDS011;7272;53.668;9.578;2022-11-14T20:31:30;19.17;;;17.17;;